createdAt,value
2018-04-24T00:04:27.634Z,7.43
2018-04-24T00:09:00.866Z,7.00
2018-04-24T00:13:34.126Z,7.97
2018-04-24T00:18:07.315Z,6.50
2018-04-24T00:22:40.503Z,8.23
2018-04-24T00:27:13.681Z,7.00
2018-04-24T00:31:46.848Z,6.90
2018-04-24T00:36:20.041Z,7.50
2018-04-24T00:40:53.234Z,7.70
2018-04-24T00:45:26.418Z,7.47
2018-04-24T00:49:59.612Z,7.30
2018-04-24T00:54:32.825Z,7.57
2018-04-24T00:59:06.042Z,8.57
2018-04-24T01:03:39.234Z,8.03
2018-04-24T01:08:12.421Z,7.20
2018-04-24T01:12:45.606Z,7.60
2018-04-24T01:17:18.790Z,7.97
2018-04-24T01:21:52.474Z,7.27
2018-04-24T01:26:25.628Z,8.60
2018-04-24T01:30:58.814Z,8.13
2018-04-24T01:35:32.022Z,7.93
2018-04-24T01:40:05.203Z,7.73
2018-04-24T01:44:38.394Z,8.83
2018-04-24T01:49:11.593Z,9.33
2018-04-24T01:53:44.745Z,8.40
2018-04-24T01:58:17.934Z,7.00
2018-04-24T02:02:51.095Z,7.87
2018-04-24T02:07:25.100Z,8.37
2018-04-24T02:11:58.246Z,8.60
2018-04-24T02:16:31.431Z,8.77
2018-04-24T02:21:05.380Z,9.23
2018-04-24T02:25:38.574Z,8.80
2018-04-24T02:30:12.531Z,9.10
2018-04-24T02:34:45.725Z,10.00
2018-04-24T02:39:18.940Z,8.73
2018-04-24T02:43:52.139Z,8.67
2018-04-24T02:48:25.349Z,9.00
2018-04-24T02:52:58.542Z,8.40
2018-04-24T02:57:31.702Z,8.70
2018-04-24T03:02:06.411Z,9.20
2018-04-24T03:06:40.441Z,8.77
2018-04-24T03:11:13.632Z,9.33
2018-04-24T03:15:46.823Z,9.70
2018-04-24T03:20:20.010Z,10.03
2018-04-24T03:24:55.189Z,10.43
2018-04-24T03:29:29.309Z,10.60
2018-04-24T03:34:02.667Z,10.93
2018-04-24T03:38:35.850Z,9.37
2018-04-24T03:43:09.048Z,9.30
2018-04-24T03:47:42.231Z,9.93
2018-04-24T03:52:16.254Z,9.00
2018-04-24T03:56:50.264Z,9.00
2018-04-24T04:01:23.445Z,9.23
2018-04-24T04:05:56.626Z,10.10
2018-04-24T04:10:29.818Z,10.07
2018-04-24T04:15:03.064Z,8.63
2018-04-24T04:19:48.126Z,9.70
2018-04-24T04:24:34.008Z,9.70
2018-04-24T04:29:07.241Z,9.90
2018-04-24T04:33:40.467Z,12.50
2018-04-24T04:38:13.660Z,11.40
2018-04-24T04:42:46.846Z,11.10
2018-04-24T04:47:20.117Z,11.93
2018-04-24T04:51:54.078Z,11.87
2018-04-24T04:56:27.293Z,10.93
2018-04-24T05:01:00.555Z,10.90
2018-04-24T05:05:33.754Z,10.77
2018-04-24T05:10:06.946Z,11.10
2018-04-24T05:14:40.296Z,10.67
2018-04-24T05:19:14.303Z,11.97
2018-04-24T05:23:48.235Z,13.03
2018-04-24T05:28:22.190Z,12.67
2018-04-24T05:32:55.391Z,11.90
2018-04-24T05:37:28.673Z,12.53
2018-04-24T05:42:02.634Z,12.23
2018-04-24T05:46:35.825Z,11.27
2018-04-24T05:51:09.034Z,11.67
2018-04-24T05:55:42.218Z,14.67
2018-04-24T06:00:16.232Z,13.57
2018-04-24T06:04:49.422Z,15.93
2018-04-24T06:09:22.622Z,15.80
2018-04-24T06:13:55.782Z,14.90
2018-04-24T06:18:28.982Z,11.23
2018-04-24T06:23:02.191Z,11.00
2018-04-24T06:27:35.353Z,11.00
2018-04-24T06:32:08.547Z,11.10
2018-04-24T06:36:41.799Z,10.73
2018-04-24T06:41:15.834Z,10.80
2018-04-24T06:45:49.019Z,10.27
2018-04-24T06:50:22.982Z,10.27
2018-04-24T06:54:56.260Z,10.07
2018-04-24T06:59:29.394Z,9.07
2018-04-24T07:04:02.590Z,10.15
2018-04-24T07:08:35.795Z,8.83
2018-04-24T07:13:08.955Z,7.82
2018-04-24T07:17:42.959Z,9.70
2018-04-24T07:22:16.248Z,8.35
2018-04-24T07:26:49.388Z,8.20
2018-04-24T07:31:22.605Z,8.23
2018-04-24T07:35:55.811Z,8.27
2018-04-24T07:40:29.011Z,7.00
2018-04-24T07:45:02.170Z,6.30
2018-04-24T07:49:35.362Z,5.97
2018-04-24T07:54:09.646Z,6.10
2018-04-24T07:58:42.835Z,5.82
2018-04-24T08:03:16.021Z,5.75
2018-04-24T08:07:49.300Z,5.90
2018-04-24T08:12:23.223Z,6.10
2018-04-24T08:16:57.174Z,5.40
2018-04-24T08:21:30.415Z,5.78
2018-04-24T08:26:03.597Z,5.70
2018-04-24T08:30:36.799Z,4.90
2018-04-24T08:35:10.114Z,5.90
2018-04-24T08:39:43.281Z,5.47
2018-04-24T08:44:17.234Z,5.12
2018-04-24T08:48:50.421Z,5.40
2018-04-24T08:53:24.375Z,5.12
2018-04-24T08:57:57.563Z,4.65
2018-04-24T09:02:30.747Z,4.50
2018-04-24T09:07:03.938Z,4.75
2018-04-24T09:11:37.890Z,4.37
2018-04-24T09:16:12.682Z,4.43
2018-04-24T09:20:45.842Z,4.47
2018-04-24T09:25:19.047Z,4.40
2018-04-24T09:29:58.014Z,4.20
2018-04-24T09:34:31.400Z,4.18
2018-04-24T09:39:07.351Z,3.75
2018-04-24T09:43:40.497Z,4.10
2018-04-24T09:48:13.707Z,3.90
2018-04-24T09:52:46.899Z,4.30
2018-04-24T09:57:20.089Z,3.55
2018-04-24T10:01:54.090Z,3.80
2018-04-24T10:06:27.282Z,3.40
2018-04-24T10:11:00.470Z,3.55
2018-04-24T10:15:33.638Z,3.67
2018-04-24T10:20:07.596Z,3.22
2018-04-24T10:24:40.782Z,3.40
2018-04-24T10:29:13.966Z,3.30
2018-04-24T10:33:47.937Z,4.05
2018-04-24T10:38:21.404Z,3.22
2018-04-24T10:42:54.611Z,4.05
2018-04-24T10:47:28.554Z,3.45
2018-04-24T10:52:02.970Z,3.70
2018-04-24T10:56:36.217Z,3.60
2018-04-24T11:01:09.420Z,3.62
2018-04-24T11:05:42.610Z,3.78
2018-04-24T11:10:15.903Z,3.80
2018-04-24T11:14:49.950Z,4.10
2018-04-24T11:19:23.146Z,3.90
2018-04-24T11:23:56.459Z,3.70
2018-04-24T11:28:29.701Z,3.67
2018-04-24T11:33:03.435Z,3.53
2018-04-24T11:37:36.627Z,3.00
2018-04-24T11:42:09.882Z,3.28
2018-04-24T11:46:44.336Z,3.40
2018-04-24T11:51:18.875Z,3.33
2018-04-24T11:55:52.078Z,3.20
2018-04-24T12:00:26.028Z,2.97
2018-04-24T12:04:59.229Z,2.60
2018-04-24T12:09:32.394Z,3.60
2018-04-24T12:14:06.364Z,2.90
2018-04-24T12:18:39.523Z,3.08
2018-04-24T12:23:12.718Z,2.87
2018-04-24T12:27:45.883Z,2.60
2018-04-24T12:32:19.082Z,2.80
2018-04-24T12:36:52.263Z,2.60
2018-04-24T12:41:26.215Z,2.80
2018-04-24T12:45:59.402Z,2.60
2018-04-24T12:50:32.600Z,4.03
2018-04-24T12:55:06.523Z,3.10
2018-04-24T12:59:40.942Z,2.67
2018-04-24T13:04:14.129Z,2.30
2018-04-24T13:08:47.321Z,2.60
2018-04-24T13:13:20.518Z,2.28
2018-04-24T13:17:53.886Z,2.70
2018-04-24T13:22:27.108Z,2.53
2018-04-24T13:27:00.296Z,2.50
2018-04-24T13:31:34.246Z,2.47
2018-04-24T13:36:07.529Z,2.95
2018-04-24T13:40:40.791Z,3.17
2018-04-24T13:45:13.975Z,2.40
2018-04-24T13:49:47.164Z,2.78
2018-04-24T13:54:20.861Z,2.40
2018-04-24T13:58:54.112Z,2.53
2018-04-24T14:03:27.272Z,2.55
2018-04-24T14:08:01.390Z,2.47
2018-04-24T14:12:35.353Z,2.58
2018-04-24T14:17:08.511Z,2.70
2018-04-24T14:21:41.704Z,2.30
2018-04-24T14:26:14.953Z,2.42
2018-04-24T14:30:48.914Z,2.45
2018-04-24T14:35:22.388Z,2.50
2018-04-24T14:39:56.413Z,2.25
2018-04-24T14:44:31.052Z,2.40
2018-04-24T14:49:04.362Z,2.40
2018-04-24T14:53:38.321Z,2.50
2018-04-24T14:58:11.513Z,2.45
2018-04-24T15:02:44.703Z,2.87
2018-04-24T15:07:18.663Z,2.65
2018-04-24T15:11:52.008Z,2.70
2018-04-24T15:16:25.663Z,2.95
2018-04-24T15:20:59.057Z,3.00
2018-04-24T15:25:33.236Z,2.90
2018-04-24T15:30:06.569Z,2.60
2018-04-24T15:34:39.787Z,2.55
2018-04-24T15:39:14.470Z,2.72
2018-04-24T15:43:48.839Z,2.90
2018-04-24T15:48:22.033Z,2.87
2018-04-24T15:52:55.213Z,2.78
2018-04-24T15:57:28.402Z,2.90
2018-04-24T16:02:03.045Z,2.55
2018-04-24T16:06:37.372Z,2.90
2018-04-24T16:11:10.613Z,2.90
2018-04-24T16:15:43.769Z,2.78
2018-04-24T16:20:18.461Z,2.70
2018-04-24T16:24:51.679Z,2.87
2018-04-24T16:29:24.865Z,3.28
2018-04-24T16:33:58.104Z,3.20
2018-04-24T16:38:31.533Z,2.92
2018-04-24T16:43:06.577Z,2.97
2018-04-24T16:47:39.737Z,2.92
2018-04-24T16:52:12.930Z,3.10
2018-04-24T16:56:46.882Z,3.12
2018-04-24T17:01:20.070Z,2.90
2018-04-24T17:05:54.053Z,2.72
2018-04-24T17:10:27.233Z,3.05
2018-04-24T17:15:00.941Z,2.97
2018-04-24T17:19:34.126Z,2.78
2018-04-24T17:24:07.318Z,2.50
2018-04-24T17:28:41.282Z,2.90
2018-04-24T17:33:14.483Z,2.60
2018-04-24T17:37:47.648Z,3.25
2018-04-24T17:42:20.847Z,2.90
2018-04-24T17:46:54.025Z,3.20
2018-04-24T17:51:27.347Z,4.05
2018-04-24T17:56:00.543Z,3.72
2018-04-24T18:00:33.913Z,3.20
2018-04-24T18:05:07.100Z,3.78
2018-04-24T18:09:41.839Z,3.87
2018-04-24T18:14:15.002Z,3.30
2018-04-24T18:18:48.190Z,3.53
2018-04-24T18:23:21.367Z,2.92
2018-04-24T18:27:55.319Z,3.20
2018-04-24T18:32:28.530Z,2.92
2018-04-24T18:37:01.688Z,4.47
2018-04-24T18:41:35.634Z,6.85
2018-04-24T18:46:08.802Z,7.70
2018-04-24T18:50:41.998Z,3.92
2018-04-24T18:55:15.198Z,3.30
2018-04-24T18:59:48.390Z,3.20
2018-04-24T19:04:21.551Z,3.40
2018-04-24T19:08:56.186Z,3.37
2018-04-24T19:13:29.387Z,3.65
2018-04-24T19:18:02.597Z,3.65
2018-04-24T19:22:35.785Z,3.47
2018-04-24T19:27:08.946Z,3.80
2018-04-24T19:31:47.818Z,5.40
2018-04-24T19:36:20.986Z,6.45
2018-04-24T19:40:59.799Z,6.60
2018-04-24T19:45:33.741Z,4.95
2018-04-24T19:50:12.600Z,5.20
2018-04-24T19:54:51.450Z,4.85
2018-04-24T19:59:24.639Z,5.30
2018-04-24T20:03:57.877Z,4.90
2018-04-24T20:08:31.390Z,4.53
2018-04-24T20:13:04.570Z,4.95
2018-04-24T20:17:38.020Z,4.57
2018-04-24T20:22:12.005Z,4.60
2018-04-24T20:26:45.206Z,4.97
2018-04-24T20:31:18.411Z,4.60
2018-04-24T20:35:51.590Z,5.20
2018-04-24T20:40:25.729Z,4.90
2018-04-24T20:44:58.956Z,4.90
2018-04-24T20:49:32.195Z,5.80
2018-04-24T20:54:05.354Z,8.63
2018-04-24T20:58:39.334Z,75.70
2018-04-24T21:03:13.393Z,211.20
2018-04-24T21:07:47.389Z,99.30
2018-04-24T21:12:20.585Z,21.80
2018-04-24T21:16:53.782Z,15.03
2018-04-24T21:21:26.994Z,74.80
2018-04-24T21:26:00.688Z,309.23
2018-04-24T21:30:33.890Z,125.83
2018-04-24T21:35:07.191Z,336.93
2018-04-24T21:39:40.596Z,210.80
2018-04-24T21:44:13.887Z,108.40
2018-04-24T21:48:47.914Z,133.07
2018-04-24T21:53:21.877Z,105.50
2018-04-24T21:57:55.074Z,136.10
2018-04-24T22:02:28.352Z,62.73
2018-04-24T22:07:03.066Z,108.77
2018-04-24T22:11:36.258Z,138.47
2018-04-24T22:16:09.471Z,121.37
2018-04-24T22:20:42.638Z,203.23
2018-04-24T22:25:15.872Z,40.60
2018-04-24T22:29:49.099Z,198.20
2018-04-24T22:34:22.299Z,189.43
2018-04-24T22:38:55.494Z,78.60
2018-04-24T22:43:28.692Z,90.10
2018-04-24T22:48:01.891Z,122.97
2018-04-24T22:52:35.098Z,127.77
2018-04-24T22:57:08.270Z,154.20
2018-04-24T23:01:42.234Z,77.80
2018-04-24T23:06:15.430Z,11.93
2018-04-24T23:11:00.572Z,8.80
2018-04-24T23:15:45.649Z,6.77
2018-04-24T23:20:18.342Z,6.43
2018-04-24T23:24:51.556Z,6.90
2018-04-24T23:29:24.746Z,6.83
2018-04-24T23:33:57.978Z,8.13
2018-04-24T23:38:31.213Z,7.20
2018-04-24T23:43:04.406Z,6.50
2018-04-24T23:47:38.424Z,6.30
2018-04-24T23:52:12.366Z,6.40
2018-04-24T23:56:46.334Z,6.80
